sensor_id;sensor_type;location;lat;lon;timestamp;pressure;altitude;pressure_sealevel;temperature;humidity
42001;BME280;27689;48.390;10.856;2023-02-26T00:02:12;95379.13;;;-0.44;100.00
42001;BME280;27689;48.390;10.856;2023-02-26T00:04:56;95385.16;;;-0.31;100.00
42001;BME280;27689;48.390;10.856;2023-02-26T00:07:41;95386.16;;;-0.33;100.00
42001;BME280;27689;48.390;10.856;2023-02-26T00:10:25;95382.50;;;-0.44;100.00
42001;BME280;27689;48.390;10.856;2023-02-26T00:13:10;95390.28;;;-0.58;100.00
42001;BME280;27689;48.390;10.856;2023-02-26T00:15:58;95395.25;;;-0.55;100.00
42001;BME280;27689;48.390;10.856;2023-02-26T00:18:42;95395.53;;;-0.59;100.00
42001;BME280;27689;48.390;10.856;2023-02-26T00:21:27;95396.56;;;-0.62;100.00
42001;BME280;27689;48.390;10.856;2023-02-26T00:24:11;95397.41;;;-0.61;100.00
42001;BME280;27689;48.390;10.856;2023-02-26T00:26:55;95401.16;;;-0.67;100.00
42001;BME280;27689;48.390;10.856;2023-02-26T00:29:39;95405.31;;;-0.64;100.00
42001;BME280;27689;48.390;10.856;2023-02-26T00:32:23;95399.59;;;-0.69;100.00
42001;BME280;27689;48.390;10.856;2023-02-26T00:35:11;95403.28;;;-0.74;100.00
42001;BME280;27689;48.390;10.856;2023-02-26T00:38:09;95403.88;;;-0.83;100.00
42001;BME280;27689;48.390;10.856;2023-02-26T00:40:55;95405.28;;;-0.91;100.00
42001;BME280;27689;48.390;10.856;2023-02-26T00:43:39;95410.50;;;-0.93;100.00
42001;BME280;27689;48.390;10.856;2023-02-26T00:46:44;95403.59;;;-0.78;100.00
42001;BME280;27689;48.390;10.856;2023-02-26T00:49:55;95410.41;;;-0.77;100.00
42001;BME280;27689;48.390;10.856;2023-02-26T00:53:01;95410.47;;;-0.79;100.00
42001;BME280;27689;48.390;10.856;2023-02-26T00:55:46;95406.34;;;-0.81;100.00
42001;BME280;27689;48.390;10.856;2023-02-26T00:58:30;95422.06;;;-0.86;100.00
42001;BME280;27689;48.390;10.856;2023-02-26T01:01:14;95415.00;;;-0.82;100.00
42001;BME280;27689;48.390;10.856;2023-02-26T01:03:59;95413.34;;;-0.83;100.00
42001;BME280;27689;48.390;10.856;2023-02-26T01:06:46;95411.22;;;-0.77;100.00
42001;BME280;27689;48.390;10.856;2023-02-26T01:09:34;95417.38;;;-0.79;100.00
42001;BME280;27689;48.390;10.856;2023-02-26T01:12:19;95413.72;;;-0.89;100.00
42001;BME280;27689;48.390;10.856;2023-02-26T01:15:04;95415.81;;;-0.82;100.00
42001;BME280;27689;48.390;10.856;2023-02-26T01:17:57;95415.25;;;-0.87;100.00
42001;BME280;27689;48.390;10.856;2023-02-26T01:21:04;95411.50;;;-0.81;100.00
42001;BME280;27689;48.390;10.856;2023-02-26T01:23:51;95418.44;;;-0.69;100.00
42001;BME280;27689;48.390;10.856;2023-02-26T01:26:35;95422.50;;;-0.79;100.00
42001;BME280;27689;48.390;10.856;2023-02-26T01:29:19;95414.06;;;-0.81;100.00
42001;BME280;27689;48.390;10.856;2023-02-26T01:32:24;95421.78;;;-0.81;100.00
42001;BME280;27689;48.390;10.856;2023-02-26T01:35:28;95426.03;;;-0.94;100.00
42001;BME280;27689;48.390;10.856;2023-02-26T01:44:21;95410.91;;;-1.13;99.96
42001;BME280;27689;48.390;10.856;2023-02-26T01:47:31;95422.28;;;-1.17;100.00
42001;BME280;27689;48.390;10.856;2023-02-26T01:50:21;95423.19;;;-1.18;100.00
42001;BME280;27689;48.390;10.856;2023-02-26T01:53:20;95435.03;;;-1.16;100.00
42001;BME280;27689;48.390;10.856;2023-02-26T01:56:12;95418.69;;;-1.15;98.16
42001;BME280;27689;48.390;10.856;2023-02-26T01:58:57;95429.91;;;-1.16;99.06
42001;BME280;27689;48.390;10.856;2023-02-26T02:01:42;95422.84;;;-1.26;100.00
42001;BME280;27689;48.390;10.856;2023-02-26T02:04:26;95427.81;;;-1.23;100.00
42001;BME280;27689;48.390;10.856;2023-02-26T02:07:10;95428.47;;;-1.20;99.13
42001;BME280;27689;48.390;10.856;2023-02-26T02:09:54;95430.28;;;-1.22;99.94
42001;BME280;27689;48.390;10.856;2023-02-26T02:13:11;95431.47;;;-1.27;100.00
42001;BME280;27689;48.390;10.856;2023-02-26T02:16:16;95430.38;;;-1.37;100.00
42001;BME280;27689;48.390;10.856;2023-02-26T02:32:05;95444.06;;;-1.37;97.86
42001;BME280;27689;48.390;10.856;2023-02-26T02:34:58;95431.19;;;-1.51;97.76
42001;BME280;27689;48.390;10.856;2023-02-26T02:37:53;95438.91;;;-1.51;98.80
42001;BME280;27689;48.390;10.856;2023-02-26T02:40:42;95442.84;;;-1.46;98.56
42001;BME280;27689;48.390;10.856;2023-02-26T02:43:32;95448.19;;;-1.49;98.32
42001;BME280;27689;48.390;10.856;2023-02-26T02:46:24;95447.88;;;-1.58;98.58
42001;BME280;27689;48.390;10.856;2023-02-26T02:49:15;95446.22;;;-1.59;98.30
42001;BME280;27689;48.390;10.856;2023-02-26T02:52:50;95443.47;;;-1.56;98.11
42001;BME280;27689;48.390;10.856;2023-02-26T02:55:53;95455.03;;;-1.63;98.33
42001;BME280;27689;48.390;10.856;2023-02-26T02:58:49;95451.00;;;-1.67;98.77
42001;BME280;27689;48.390;10.856;2023-02-26T03:01:34;95454.66;;;-1.71;99.17
42001;BME280;27689;48.390;10.856;2023-02-26T03:04:20;95462.19;;;-1.68;99.49
42001;BME280;27689;48.390;10.856;2023-02-26T03:07:04;95459.03;;;-1.73;98.42
42001;BME280;27689;48.390;10.856;2023-02-26T03:09:47;95461.78;;;-1.77;98.72
42001;BME280;27689;48.390;10.856;2023-02-26T03:12:32;95461.78;;;-1.77;98.70
42001;BME280;27689;48.390;10.856;2023-02-26T03:15:22;95466.81;;;-1.75;98.17
42001;BME280;27689;48.390;10.856;2023-02-26T03:21:33;95481.59;;;-1.79;94.39
42001;BME280;27689;48.390;10.856;2023-02-26T03:27:30;95491.22;;;-1.82;96.85
42001;BME280;27689;48.390;10.856;2023-02-26T03:30:29;95483.75;;;-1.87;97.93
42001;BME280;27689;48.390;10.856;2023-02-26T03:33:27;95489.31;;;-1.79;97.99
42001;BME280;27689;48.390;10.856;2023-02-26T03:42:35;95500.44;;;-1.64;98.09
42001;BME280;27689;48.390;10.856;2023-02-26T03:45:25;95510.28;;;-1.72;98.64
42001;BME280;27689;48.390;10.856;2023-02-26T03:48:13;95513.88;;;-1.74;99.66
42001;BME280;27689;48.390;10.856;2023-02-26T03:51:04;95509.88;;;-1.64;98.77
42001;BME280;27689;48.390;10.856;2023-02-26T03:53:59;95512.31;;;-1.63;98.90
42001;BME280;27689;48.390;10.856;2023-02-26T03:56:46;95525.00;;;-1.60;98.61
42001;BME280;27689;48.390;10.856;2023-02-26T03:59:31;95526.94;;;-1.63;99.62
42001;BME280;27689;48.390;10.856;2023-02-26T04:02:21;95529.38;;;-1.62;99.64
42001;BME280;27689;48.390;10.856;2023-02-26T04:05:13;95529.88;;;-1.55;98.59
42001;BME280;27689;48.390;10.856;2023-02-26T04:07:58;95538.31;;;-1.53;98.28
42001;BME280;27689;48.390;10.856;2023-02-26T04:10:52;95528.97;;;-1.54;97.72
42001;BME280;27689;48.390;10.856;2023-02-26T04:13:37;95532.25;;;-1.66;98.21
42001;BME280;27689;48.390;10.856;2023-02-26T04:16:21;95542.44;;;-1.65;98.51
42001;BME280;27689;48.390;10.856;2023-02-26T04:19:06;95543.69;;;-1.72;98.81
42001;BME280;27689;48.390;10.856;2023-02-26T04:21:50;95538.06;;;-1.79;97.90
42001;BME280;27689;48.390;10.856;2023-02-26T04:24:34;95539.81;;;-1.79;97.67
42001;BME280;27689;48.390;10.856;2023-02-26T04:27:18;95553.47;;;-1.79;97.02
42001;BME280;27689;48.390;10.856;2023-02-26T04:30:03;95548.69;;;-1.85;96.69
42001;BME280;27689;48.390;10.856;2023-02-26T04:32:47;95549.19;;;-1.94;97.66
42001;BME280;27689;48.390;10.856;2023-02-26T04:35:31;95546.88;;;-1.98;97.92
42001;BME280;27689;48.390;10.856;2023-02-26T04:38:16;95566.75;;;-2.02;97.76
42001;BME280;27689;48.390;10.856;2023-02-26T04:41:00;95557.00;;;-2.11;98.42
42001;BME280;27689;48.390;10.856;2023-02-26T04:43:44;95564.69;;;-2.11;98.68
42001;BME280;27689;48.390;10.856;2023-02-26T04:46:28;95568.31;;;-1.99;98.29
42001;BME280;27689;48.390;10.856;2023-02-26T04:49:13;95563.94;;;-1.97;97.70
42001;BME280;27689;48.390;10.856;2023-02-26T04:51:57;95556.34;;;-2.15;97.84
42001;BME280;27689;48.390;10.856;2023-02-26T04:54:41;95568.25;;;-2.14;98.29
42001;BME280;27689;48.390;10.856;2023-02-26T04:57:25;95567.75;;;-2.20;98.88
42001;BME280;27689;48.390;10.856;2023-02-26T05:00:10;95569.75;;;-2.25;99.29
42001;BME280;27689;48.390;10.856;2023-02-26T05:02:54;95574.97;;;-2.27;99.30
42001;BME280;27689;48.390;10.856;2023-02-26T05:05:38;95574.44;;;-2.33;99.51
42001;BME280;27689;48.390;10.856;2023-02-26T05:08:22;95573.97;;;-2.40;99.82
42001;BME280;27689;48.390;10.856;2023-02-26T05:11:09;95570.16;;;-2.33;99.21
42001;BME280;27689;48.390;10.856;2023-02-26T05:13:53;95576.47;;;-2.38;98.71
42001;BME280;27689;48.390;10.856;2023-02-26T05:16:37;95568.56;;;-2.51;99.56
42001;BME280;27689;48.390;10.856;2023-02-26T05:19:21;95578.50;;;-2.45;98.93
42001;BME280;27689;48.390;10.856;2023-02-26T05:22:05;95571.22;;;-2.53;99.33
42001;BME280;27689;48.390;10.856;2023-02-26T05:24:49;95584.22;;;-2.56;99.14
42001;BME280;27689;48.390;10.856;2023-02-26T05:27:33;95585.88;;;-2.55;98.49
42001;BME280;27689;48.390;10.856;2023-02-26T05:30:17;95586.34;;;-2.64;99.19
42001;BME280;27689;48.390;10.856;2023-02-26T05:33:01;95585.78;;;-2.69;99.45
42001;BME280;27689;48.390;10.856;2023-02-26T05:35:45;95598.59;;;-2.69;99.99
42001;BME280;27689;48.390;10.856;2023-02-26T05:38:31;95588.25;;;-2.67;99.29
42001;BME280;27689;48.390;10.856;2023-02-26T05:41:15;95591.94;;;-2.73;99.24
42001;BME280;27689;48.390;10.856;2023-02-26T05:43:59;95598.13;;;-2.77;99.39
42001;BME280;27689;48.390;10.856;2023-02-26T05:46:43;95605.75;;;-2.75;99.18
42001;BME280;27689;48.390;10.856;2023-02-26T05:49:26;95594.81;;;-2.79;99.38
42001;BME280;27689;48.390;10.856;2023-02-26T05:52:10;95608.63;;;-2.81;98.86
42001;BME280;27689;48.390;10.856;2023-02-26T05:54:54;95610.13;;;-2.77;98.34
42001;BME280;27689;48.390;10.856;2023-02-26T05:57:38;95604.72;;;-2.89;99.04
42001;BME280;27689;48.390;10.856;2023-02-26T06:00:23;95616.88;;;-2.92;98.60
42001;BME280;27689;48.390;10.856;2023-02-26T06:03:07;95614.44;;;-2.95;99.13
42001;BME280;27689;48.390;10.856;2023-02-26T06:05:51;95616.09;;;-2.94;98.68
42001;BME280;27689;48.390;10.856;2023-02-26T06:08:34;95611.16;;;-2.97;97.73
42001;BME280;27689;48.390;10.856;2023-02-26T06:11:18;95612.34;;;-2.87;96.90
42001;BME280;27689;48.390;10.856;2023-02-26T06:14:02;95622.91;;;-3.10;98.06
42001;BME280;27689;48.390;10.856;2023-02-26T06:16:46;95627.06;;;-3.08;97.95
42001;BME280;27689;48.390;10.856;2023-02-26T06:19:30;95630.69;;;-3.12;98.97
42001;BME280;27689;48.390;10.856;2023-02-26T06:22:14;95628.03;;;-3.10;98.29
42001;BME280;27689;48.390;10.856;2023-02-26T06:24:58;95638.53;;;-3.15;98.11
42001;BME280;27689;48.390;10.856;2023-02-26T06:27:42;95644.91;;;-3.24;99.13
42001;BME280;27689;48.390;10.856;2023-02-26T06:30:26;95651.84;;;-3.26;99.52
42001;BME280;27689;48.390;10.856;2023-02-26T06:33:11;95656.81;;;-3.23;99.01
42001;BME280;27689;48.390;10.856;2023-02-26T06:35:55;95665.31;;;-3.22;99.26
42001;BME280;27689;48.390;10.856;2023-02-26T06:38:40;95664.50;;;-3.23;99.45
42001;BME280;27689;48.390;10.856;2023-02-26T06:41:25;95671.75;;;-3.13;97.99
42001;BME280;27689;48.390;10.856;2023-02-26T06:44:10;95672.03;;;-3.20;98.65
42001;BME280;27689;48.390;10.856;2023-02-26T06:46:53;95680.34;;;-3.14;98.07
42001;BME280;27689;48.390;10.856;2023-02-26T06:49:37;95677.22;;;-3.21;98.58
42001;BME280;27689;48.390;10.856;2023-02-26T06:52:21;95676.88;;;-3.13;98.47
42001;BME280;27689;48.390;10.856;2023-02-26T06:55:06;95686.66;;;-3.22;99.23
42001;BME280;27689;48.390;10.856;2023-02-26T06:57:50;95683.56;;;-3.11;98.82
42001;BME280;27689;48.390;10.856;2023-02-26T07:00:34;95681.09;;;-3.12;99.09
42001;BME280;27689;48.390;10.856;2023-02-26T07:03:19;95686.03;;;-3.09;98.81
42001;BME280;27689;48.390;10.856;2023-02-26T07:06:05;95692.53;;;-3.02;98.79
42001;BME280;27689;48.390;10.856;2023-02-26T07:08:50;95691.16;;;-3.09;99.32
42001;BME280;27689;48.390;10.856;2023-02-26T07:11:34;95706.09;;;-3.00;98.95
42001;BME280;27689;48.390;10.856;2023-02-26T07:14:18;95699.91;;;-2.96;97.98
42001;BME280;27689;48.390;10.856;2023-02-26T07:17:02;95706.41;;;-2.89;97.65
42001;BME280;27689;48.390;10.856;2023-02-26T07:19:47;95709.78;;;-2.89;97.00
42001;BME280;27689;48.390;10.856;2023-02-26T07:22:32;95709.66;;;-2.86;97.39
42001;BME280;27689;48.390;10.856;2023-02-26T07:25:17;95711.97;;;-2.81;96.56
42001;BME280;27689;48.390;10.856;2023-02-26T07:28:01;95715.34;;;-2.80;97.64
42001;BME280;27689;48.390;10.856;2023-02-26T07:30:48;95724.47;;;-2.75;97.58
42001;BME280;27689;48.390;10.856;2023-02-26T07:33:35;95728.78;;;-2.58;96.38
42001;BME280;27689;48.390;10.856;2023-02-26T07:36:22;95737.22;;;-2.56;97.17
42001;BME280;27689;48.390;10.856;2023-02-26T07:39:06;95731.47;;;-2.44;96.10
42001;BME280;27689;48.390;10.856;2023-02-26T07:41:50;95746.44;;;-2.36;96.52
42001;BME280;27689;48.390;10.856;2023-02-26T07:44:35;95737.63;;;-2.31;97.14
42001;BME280;27689;48.390;10.856;2023-02-26T07:47:19;95745.50;;;-2.18;97.45
42001;BME280;27689;48.390;10.856;2023-02-26T07:50:03;95748.19;;;-2.04;95.86
42001;BME280;27689;48.390;10.856;2023-02-26T07:52:48;95761.88;;;-1.88;95.36
42001;BME280;27689;48.390;10.856;2023-02-26T07:55:32;95764.78;;;-1.78;94.42
42001;BME280;27689;48.390;10.856;2023-02-26T07:58:17;95766.13;;;-1.71;94.43
42001;BME280;27689;48.390;10.856;2023-02-26T08:01:01;95764.66;;;-1.59;95.19
42001;BME280;27689;48.390;10.856;2023-02-26T08:03:45;95770.84;;;-1.48;93.21
42001;BME280;27689;48.390;10.856;2023-02-26T08:06:29;95764.81;;;-1.47;92.53
42001;BME280;27689;48.390;10.856;2023-02-26T08:09:14;95771.59;;;-1.46;91.84
42001;BME280;27689;48.390;10.856;2023-02-26T08:11:58;95774.03;;;-1.43;92.28
42001;BME280;27689;48.390;10.856;2023-02-26T08:14:42;95774.09;;;-1.44;90.70
42001;BME280;27689;48.390;10.856;2023-02-26T08:17:26;95780.75;;;-1.40;89.61
42001;BME280;27689;48.390;10.856;2023-02-26T08:20:11;95780.66;;;-1.38;90.71
42001;BME280;27689;48.390;10.856;2023-02-26T08:22:57;95775.09;;;-1.31;90.61
42001;BME280;27689;48.390;10.856;2023-02-26T08:25:41;95781.56;;;-1.24;90.17
42001;BME280;27689;48.390;10.856;2023-02-26T08:28:25;95772.66;;;-1.18;89.31
42001;BME280;27689;48.390;10.856;2023-02-26T08:31:09;95760.50;;;-1.15;89.98
42001;BME280;27689;48.390;10.856;2023-02-26T08:33:54;95773.19;;;-1.12;88.21
42001;BME280;27689;48.390;10.856;2023-02-26T08:36:38;95773.19;;;-1.12;90.14
42001;BME280;27689;48.390;10.856;2023-02-26T08:39:22;95769.09;;;-1.00;88.90
42001;BME280;27689;48.390;10.856;2023-02-26T08:42:08;95771.25;;;-0.92;88.43
42001;BME280;27689;48.390;10.856;2023-02-26T08:44:52;95764.63;;;-0.96;88.91
42001;BME280;27689;48.390;10.856;2023-02-26T08:47:36;95778.44;;;-0.83;87.17
42001;BME280;27689;48.390;10.856;2023-02-26T08:50:21;95779.78;;;-0.92;89.15
42001;BME280;27689;48.390;10.856;2023-02-26T08:53:05;95788.50;;;-0.94;88.76
42001;BME280;27689;48.390;10.856;2023-02-26T08:55:51;95794.13;;;-0.88;85.59
42001;BME280;27689;48.390;10.856;2023-02-26T08:58:35;95804.16;;;-0.99;87.04
42001;BME280;27689;48.390;10.856;2023-02-26T09:01:19;95800.47;;;-1.09;89.84
42001;BME280;27689;48.390;10.856;2023-02-26T09:04:03;95800.03;;;-1.01;87.54
42001;BME280;27689;48.390;10.856;2023-02-26T09:06:47;95803.50;;;-1.02;89.53
42001;BME280;27689;48.390;10.856;2023-02-26T09:09:31;95812.88;;;-1.01;89.37
42001;BME280;27689;48.390;10.856;2023-02-26T09:12:14;95816.19;;;-0.99;90.72
42001;BME280;27689;48.390;10.856;2023-02-26T09:14:59;95818.91;;;-1.02;93.62
42001;BME280;27689;48.390;10.856;2023-02-26T09:17:45;95820.84;;;-0.90;94.06
42001;BME280;27689;48.390;10.856;2023-02-26T09:20:29;95821.91;;;-0.79;95.19
42001;BME280;27689;48.390;10.856;2023-02-26T09:23:13;95819.56;;;-0.67;95.34
42001;BME280;27689;48.390;10.856;2023-02-26T09:25:57;95813.63;;;-0.54;96.14
42001;BME280;27689;48.390;10.856;2023-02-26T09:28:41;95821.75;;;-0.46;94.90
42001;BME280;27689;48.390;10.856;2023-02-26T09:31:25;95824.41;;;-0.47;95.24
42001;BME280;27689;48.390;10.856;2023-02-26T09:34:09;95826.41;;;-0.52;93.96
42001;BME280;27689;48.390;10.856;2023-02-26T09:36:53;95834.13;;;-0.52;95.58
42001;BME280;27689;48.390;10.856;2023-02-26T09:39:37;95842.34;;;-0.46;94.48
42001;BME280;27689;48.390;10.856;2023-02-26T09:42:43;95846.00;;;-0.50;92.84
42001;BME280;27689;48.390;10.856;2023-02-26T09:45:37;95846.66;;;-0.46;89.77
42001;BME280;27689;48.390;10.856;2023-02-26T09:48:22;95840.44;;;-0.58;90.32
42001;BME280;27689;48.390;10.856;2023-02-26T09:51:11;95836.88;;;-0.71;91.49
42001;BME280;27689;48.390;10.856;2023-02-26T09:53:59;95847.19;;;-0.71;90.62
42001;BME280;27689;48.390;10.856;2023-02-26T09:56:49;95842.78;;;-0.69;91.90
42001;BME280;27689;48.390;10.856;2023-02-26T09:59:33;95843.84;;;-0.73;91.33
42001;BME280;27689;48.390;10.856;2023-02-26T10:02:30;95856.00;;;-0.75;91.29
42001;BME280;27689;48.390;10.856;2023-02-26T10:05:21;95857.63;;;-0.74;91.74
42001;BME280;27689;48.390;10.856;2023-02-26T10:08:17;95852.97;;;-0.67;91.89
42001;BME280;27689;48.390;10.856;2023-02-26T10:11:16;95862.19;;;-0.63;89.89
42001;BME280;27689;48.390;10.856;2023-02-26T10:14:36;95854.97;;;-0.73;91.11
42001;BME280;27689;48.390;10.856;2023-02-26T10:23:37;95860.03;;;-0.71;91.13
42001;BME280;27689;48.390;10.856;2023-02-26T10:29:25;95863.25;;;-0.52;93.63
42001;BME280;27689;48.390;10.856;2023-02-26T10:32:22;95866.03;;;-0.41;92.01
42001;BME280;27689;48.390;10.856;2023-02-26T10:35:14;95865.53;;;-0.31;92.43
42001;BME280;27689;48.390;10.856;2023-02-26T10:38:04;95867.81;;;-0.27;91.82
42001;BME280;27689;48.390;10.856;2023-02-26T10:40:54;95870.16;;;-0.22;91.81
42001;BME280;27689;48.390;10.856;2023-02-26T10:43:42;95866.66;;;-0.21;92.05
42001;BME280;27689;48.390;10.856;2023-02-26T10:46:49;95871.47;;;-0.15;93.24
42001;BME280;27689;48.390;10.856;2023-02-26T10:52:22;95860.53;;;-0.05;93.56
42001;BME280;27689;48.390;10.856;2023-02-26T10:58:09;95850.69;;;0.02;90.93
42001;BME280;27689;48.390;10.856;2023-02-26T11:00:55;95851.44;;;0.04;90.86
42001;BME280;27689;48.390;10.856;2023-02-26T11:03:42;95851.28;;;0.07;90.67
42001;BME280;27689;48.390;10.856;2023-02-26T11:06:33;95838.50;;;0.06;92.07
42001;BME280;27689;48.390;10.856;2023-02-26T11:09:21;95845.94;;;0.10;90.27
42001;BME280;27689;48.390;10.856;2023-02-26T11:14:51;95846.69;;;0.12;91.52
42001;BME280;27689;48.390;10.856;2023-02-26T11:17:36;95838.97;;;0.12;92.42
42001;BME280;27689;48.390;10.856;2023-02-26T11:20:29;95842.06;;;0.17;93.42
42001;BME280;27689;48.390;10.856;2023-02-26T11:23:20;95849.38;;;0.25;92.57
42001;BME280;27689;48.390;10.856;2023-02-26T11:26:14;95847.97;;;0.33;92.07
42001;BME280;27689;48.390;10.856;2023-02-26T11:28:59;95844.50;;;0.49;93.63
42001;BME280;27689;48.390;10.856;2023-02-26T11:31:46;95843.63;;;0.77;92.77
42001;BME280;27689;48.390;10.856;2023-02-26T11:34:31;95849.44;;;0.80;92.89
42001;BME280;27689;48.390;10.856;2023-02-26T11:37:35;95849.09;;;0.72;90.53
42001;BME280;27689;48.390;10.856;2023-02-26T11:40:33;95835.63;;;0.81;91.62
42001;BME280;27689;48.390;10.856;2023-02-26T11:43:19;95851.91;;;0.96;89.14
42001;BME280;27689;48.390;10.856;2023-02-26T11:46:04;95869.13;;;0.95;90.44
42001;BME280;27689;48.390;10.856;2023-02-26T11:48:49;95864.88;;;0.94;91.40
42001;BME280;27689;48.390;10.856;2023-02-26T11:51:35;95871.88;;;0.92;91.30
42001;BME280;27689;48.390;10.856;2023-02-26T11:54:26;95875.03;;;0.97;91.16
42001;BME280;27689;48.390;10.856;2023-02-26T11:57:25;95872.44;;;0.97;88.01
42001;BME280;27689;48.390;10.856;2023-02-26T12:00:19;95868.69;;;0.89;87.28
42001;BME280;27689;48.390;10.856;2023-02-26T12:03:06;95867.28;;;0.97;84.59
42001;BME280;27689;48.390;10.856;2023-02-26T12:05:52;95869.97;;;0.82;85.96
42001;BME280;27689;48.390;10.856;2023-02-26T12:08:39;95874.88;;;0.72;86.85
42001;BME280;27689;48.390;10.856;2023-02-26T12:11:45;95877.44;;;0.72;84.44
42001;BME280;27689;48.390;10.856;2023-02-26T12:27:29;95874.38;;;0.94;84.07
42001;BME280;27689;48.390;10.856;2023-02-26T12:36:35;95875.41;;;0.77;83.62
42001;BME280;27689;48.390;10.856;2023-02-26T12:51:44;95867.94;;;0.87;79.91
42001;BME280;27689;48.390;10.856;2023-02-26T12:58:14;95855.97;;;0.86;81.78
42001;BME280;27689;48.390;10.856;2023-02-26T13:01:17;95857.97;;;0.95;82.26
42001;BME280;27689;48.390;10.856;2023-02-26T13:13:45;95853.44;;;1.79;77.93
42001;BME280;27689;48.390;10.856;2023-02-26T13:16:51;95856.97;;;1.78;75.97
42001;BME280;27689;48.390;10.856;2023-02-26T13:19:43;95857.91;;;1.77;75.64
42001;BME280;27689;48.390;10.856;2023-02-26T13:22:41;95860.16;;;1.82;73.68
42001;BME280;27689;48.390;10.856;2023-02-26T13:25:39;95861.75;;;2.09;71.34
42001;BME280;27689;48.390;10.856;2023-02-26T13:31:42;95864.06;;;2.39;73.46
42001;BME280;27689;48.390;10.856;2023-02-26T13:34:41;95863.53;;;2.09;77.01
42001;BME280;27689;48.390;10.856;2023-02-26T13:37:33;95854.72;;;1.99;76.34
42001;BME280;27689;48.390;10.856;2023-02-26T13:40:42;95855.06;;;2.07;76.96
42001;BME280;27689;48.390;10.856;2023-02-26T13:47:17;95863.22;;;2.26;77.56
42001;BME280;27689;48.390;10.856;2023-02-26T13:50:34;95863.88;;;2.30;74.49
42001;BME280;27689;48.390;10.856;2023-02-26T13:56:15;95868.84;;;2.33;75.19
42001;BME280;27689;48.390;10.856;2023-02-26T14:02:43;95870.16;;;1.61;72.22
42001;BME280;27689;48.390;10.856;2023-02-26T14:05:05;95884.59;;;1.36;73.63
42001;BME280;27689;48.390;10.856;2023-02-26T14:08:09;95886.09;;;1.26;73.46
42001;BME280;27689;48.390;10.856;2023-02-26T14:11:01;95887.88;;;1.12;76.53
42001;BME280;27689;48.390;10.856;2023-02-26T14:14:09;95891.56;;;1.08;76.50
42001;BME280;27689;48.390;10.856;2023-02-26T14:22:40;95889.09;;;1.47;75.62
42001;BME280;27689;48.390;10.856;2023-02-26T14:25:35;95896.09;;;1.45;75.08
42001;BME280;27689;48.390;10.856;2023-02-26T14:34:19;95903.84;;;1.45;75.94
42001;BME280;27689;48.390;10.856;2023-02-26T14:37:11;95894.88;;;1.51;71.85
42001;BME280;27689;48.390;10.856;2023-02-26T14:40:06;95897.59;;;1.35;72.70
42001;BME280;27689;48.390;10.856;2023-02-26T14:42:59;95898.47;;;1.21;68.73
42001;BME280;27689;48.390;10.856;2023-02-26T14:45:44;95894.03;;;1.23;71.37
42001;BME280;27689;48.390;10.856;2023-02-26T14:48:29;95904.44;;;1.22;70.36
42001;BME280;27689;48.390;10.856;2023-02-26T14:51:48;95913.31;;;1.18;70.22
42001;BME280;27689;48.390;10.856;2023-02-26T14:54:59;95913.69;;;1.12;70.75
42001;BME280;27689;48.390;10.856;2023-02-26T15:04:02;95917.22;;;1.37;70.35
42001;BME280;27689;48.390;10.856;2023-02-26T15:16:16;95933.84;;;1.33;71.12
42001;BME280;27689;48.390;10.856;2023-02-26T15:24:59;95941.97;;;1.13;74.11
42001;BME280;27689;48.390;10.856;2023-02-26T15:27:44;95933.84;;;1.33;73.19
42001;BME280;27689;48.390;10.856;2023-02-26T15:30:29;95950.84;;;1.36;73.18
42001;BME280;27689;48.390;10.856;2023-02-26T15:33:17;95965.84;;;1.02;77.36
42001;BME280;27689;48.390;10.856;2023-02-26T15:36:10;95957.47;;;0.85;78.88
42001;BME280;27689;48.390;10.856;2023-02-26T15:38:57;95978.63;;;0.76;80.48
42001;BME280;27689;48.390;10.856;2023-02-26T15:41:45;95974.19;;;0.78;76.64
42001;BME280;27689;48.390;10.856;2023-02-26T15:44:31;95980.72;;;0.55;74.88
42001;BME280;27689;48.390;10.856;2023-02-26T15:47:17;95977.81;;;0.45;78.19
42001;BME280;27689;48.390;10.856;2023-02-26T15:50:01;95976.66;;;0.51;76.14
42001;BME280;27689;48.390;10.856;2023-02-26T15:52:50;95976.63;;;0.37;75.28
42001;BME280;27689;48.390;10.856;2023-02-26T15:55:42;95977.38;;;0.39;75.98
42001;BME280;27689;48.390;10.856;2023-02-26T15:58:37;95984.94;;;0.42;77.08
42001;BME280;27689;48.390;10.856;2023-02-26T16:01:24;95983.72;;;0.47;77.29
42001;BME280;27689;48.390;10.856;2023-02-26T16:04:14;95984.72;;;0.45;77.32
42001;BME280;27689;48.390;10.856;2023-02-26T16:06:58;95995.22;;;0.42;77.61
42001;BME280;27689;48.390;10.856;2023-02-26T16:09:48;95986.84;;;0.38;77.11
42001;BME280;27689;48.390;10.856;2023-02-26T16:12:39;95992.81;;;0.39;77.31
42001;BME280;27689;48.390;10.856;2023-02-26T16:15:35;96002.69;;;0.46;73.65
42001;BME280;27689;48.390;10.856;2023-02-26T16:18:22;96007.16;;;0.28;76.80
42001;BME280;27689;48.390;10.856;2023-02-26T16:21:09;96012.41;;;0.27;77.03
42001;BME280;27689;48.390;10.856;2023-02-26T16:23:58;96012.91;;;0.18;77.56
42001;BME280;27689;48.390;10.856;2023-02-26T16:26:48;96022.03;;;0.23;77.35
42001;BME280;27689;48.390;10.856;2023-02-26T16:29:34;96030.22;;;0.30;76.82
42001;BME280;27689;48.390;10.856;2023-02-26T16:32:21;96031.91;;;0.31;76.50
42001;BME280;27689;48.390;10.856;2023-02-26T16:35:15;96033.97;;;0.40;76.26
42001;BME280;27689;48.390;10.856;2023-02-26T16:38:18;96043.91;;;0.46;76.90
42001;BME280;27689;48.390;10.856;2023-02-26T16:41:08;96042.44;;;0.42;78.13
42001;BME280;27689;48.390;10.856;2023-02-26T16:43:56;96058.09;;;0.23;80.87
42001;BME280;27689;48.390;10.856;2023-02-26T16:46:42;96057.28;;;0.07;83.74
42001;BME280;27689;48.390;10.856;2023-02-26T16:49:32;96061.28;;;-0.03;84.49
42001;BME280;27689;48.390;10.856;2023-02-26T16:52:19;96065.19;;;-0.12;83.13
42001;BME280;27689;48.390;10.856;2023-02-26T16:55:05;96070.84;;;-0.21;83.98
42001;BME280;27689;48.390;10.856;2023-02-26T16:57:50;96076.75;;;-0.19;84.18
42001;BME280;27689;48.390;10.856;2023-02-26T17:00:37;96091.91;;;-0.14;83.42
42001;BME280;27689;48.390;10.856;2023-02-26T17:03:23;96091.91;;;-0.14;83.41
42001;BME280;27689;48.390;10.856;2023-02-26T17:06:09;96097.00;;;-0.13;83.35